CheckWX is a tool to help pilots better visualize weather data.  It is not intended as a substitute for an official pre-flight weather briefing.

02:09:59 UTC

KCKV TAF
Outlaw Field Airport
Clarksville, Tennessee, USA
KCKV 222320Z 2300/2324 20005KT P6SM SCT150 FM231500 24011KT P6SM SCT050 SCT150

Apr-23@
00:00 UTC

Apr-23 @ 00:00 UTC

Apr-23@
15:00 UTC

Apr-23 @ 15:00 UTC

KCKV 222320Z 2300/2324 20005KT P6SM SCT150
Wind
  • 200° at 5 KTS
Cloud Levels
  • Scattered at 15,000' AGL

Apr-23@
15:00 UTC

Apr-23 @ 15:00 UTC

Apr-24@
00:00 UTC

Apr-24 @ 00:00 UTC

FM231500 24011KT P6SM SCT050 SCT150

From

From Standard forecast or significant change

Wind
  • 240° at 11 KTS
Cloud Levels
  • Scattered at 5,000' AGL
  • Scattered at 15,000' AGL